Rossburg, Ohio
Current Conditions -  °F | °C
As of 7:35 PM on Thursday 27 Nov 2014 (Local Time) from KVES Reporting Station
Light Snow Light Snow  
Wind Chill: 18°   Ceiling: 1900
Heat Index: 28°   Visibility: 10mi
Dew Point: 27°   Wind: 13mph
Humidity: 93%   Direction: 290°WNW
Pressure: 30.33"   Gusts: 16mph
Location:  40.28°N, 84.64°W
Report Text: KVES 280035Z AUTO 29011G14KT 10SM -SN OVC019 M02/M03 A3033 RMK AO2
Loading
Personal Weather Stations






























Interactive Weather Map New forecast layout! Learn more

10-Day Weather Forecast

Advertisements
Track Severe Weather on mobile